createdAt,value
2019-02-17T00:00:41.620Z,29.17
2019-02-17T00:03:10.310Z,29.53
2019-02-17T00:05:38.953Z,28.50
2019-02-17T00:08:07.621Z,32.50
2019-02-17T00:10:36.323Z,29.00
2019-02-17T00:13:05.005Z,30.00
2019-02-17T00:15:33.681Z,30.17
2019-02-17T00:18:02.425Z,26.77
2019-02-17T00:20:31.072Z,27.60
2019-02-17T00:22:59.755Z,26.37
2019-02-17T00:25:28.420Z,25.87
2019-02-17T00:27:57.106Z,25.73
2019-02-17T00:30:25.771Z,26.67
2019-02-17T00:32:54.447Z,27.40
2019-02-17T00:35:23.119Z,30.03
2019-02-17T00:37:51.797Z,28.03
2019-02-17T00:40:20.466Z,33.93
2019-02-17T00:42:49.181Z,29.73
2019-02-17T00:45:17.852Z,31.57
2019-02-17T00:47:46.525Z,28.03
2019-02-17T00:50:15.192Z,28.17
2019-02-17T00:52:43.859Z,34.70
2019-02-17T00:55:12.539Z,32.13
2019-02-17T00:57:41.266Z,33.13
2019-02-17T01:00:12.631Z,34.13
2019-02-17T01:02:41.302Z,30.83
2019-02-17T01:05:09.977Z,34.40
2019-02-17T01:07:38.739Z,36.37
2019-02-17T01:10:08.406Z,40.67
2019-02-17T01:12:37.080Z,35.40
2019-02-17T01:15:11.047Z,35.73
2019-02-17T01:17:39.752Z,33.87
2019-02-17T01:20:10.188Z,34.47
2019-02-17T01:22:38.855Z,32.20
2019-02-17T01:25:10.723Z,32.77
2019-02-17T01:27:39.391Z,31.67
2019-02-17T01:30:11.004Z,32.50
2019-02-17T01:32:39.675Z,30.63
2019-02-17T01:35:08.344Z,29.97
2019-02-17T01:37:37.026Z,32.40
2019-02-17T01:40:08.535Z,32.20
2019-02-17T01:42:37.219Z,30.40
2019-02-17T01:45:08.390Z,31.47
2019-02-17T01:47:37.109Z,35.23
2019-02-17T01:50:08.189Z,28.93
2019-02-17T01:52:36.954Z,34.23
2019-02-17T01:55:07.320Z,30.67
2019-02-17T01:57:36.025Z,31.33
2019-02-17T02:00:07.239Z,30.27
2019-02-17T02:02:35.904Z,29.53
2019-02-17T02:05:06.170Z,31.80
2019-02-17T02:07:34.842Z,30.77
2019-02-17T02:10:04.425Z,29.50
2019-02-17T02:12:33.085Z,27.47
2019-02-17T02:15:01.768Z,27.47
2019-02-17T02:17:30.441Z,29.40
2019-02-17T02:19:59.113Z,30.70
2019-02-17T02:22:27.877Z,27.97
2019-02-17T02:24:56.549Z,28.37
2019-02-17T02:27:25.212Z,32.27
2019-02-17T02:29:53.882Z,25.30
2019-02-17T02:32:22.551Z,26.23
2019-02-17T02:34:51.231Z,26.33
2019-02-17T02:37:19.928Z,30.20
2019-02-17T02:39:48.570Z,28.70
2019-02-17T02:42:17.350Z,25.90
2019-02-17T02:44:48.566Z,28.17
2019-02-17T02:47:16.445Z,27.37
2019-02-17T02:49:45.115Z,23.73
2019-02-17T02:52:13.833Z,28.43
2019-02-17T02:54:42.508Z,25.73
2019-02-17T02:57:11.172Z,26.30
2019-02-17T02:59:39.850Z,26.50
2019-02-17T03:02:08.520Z,28.60
2019-02-17T03:04:37.191Z,29.47
2019-02-17T03:07:05.852Z,28.37
2019-02-17T03:09:34.522Z,28.80
2019-02-17T03:12:03.179Z,27.87
2019-02-17T03:14:31.855Z,30.13
2019-02-17T03:17:00.955Z,28.53
2019-02-17T03:19:29.664Z,28.90
2019-02-17T03:21:58.333Z,30.13
2019-02-17T03:24:27.049Z,32.20
2019-02-17T03:26:55.771Z,33.80
2019-02-17T03:29:24.466Z,28.47
2019-02-17T03:31:53.151Z,29.60
2019-02-17T03:34:21.812Z,29.60
2019-02-17T03:36:50.488Z,31.10
2019-02-17T03:39:19.156Z,28.33
2019-02-17T03:41:47.832Z,33.37
2019-02-17T03:44:16.496Z,31.40
2019-02-17T03:46:45.184Z,32.13
2019-02-17T03:49:13.864Z,33.90
2019-02-17T03:51:42.540Z,27.37
2019-02-17T03:54:11.204Z,34.97
2019-02-17T03:56:39.868Z,36.97
2019-02-17T03:59:08.562Z,37.93
2019-02-17T04:01:37.230Z,35.13
2019-02-17T04:04:05.898Z,36.40
2019-02-17T04:06:34.571Z,39.00
2019-02-17T04:09:04.791Z,36.37
2019-02-17T04:11:33.456Z,35.50
2019-02-17T04:14:02.136Z,44.63
2019-02-17T04:16:30.839Z,41.20
2019-02-17T04:18:59.522Z,39.90
2019-02-17T04:21:28.203Z,41.77
2019-02-17T04:23:56.885Z,46.17
2019-02-17T04:26:25.544Z,53.13
2019-02-17T04:28:54.218Z,54.93
2019-02-17T04:31:22.898Z,60.20
2019-02-17T04:33:51.560Z,50.10
2019-02-17T04:36:20.246Z,48.00
2019-02-17T04:38:48.913Z,49.80
2019-02-17T04:41:17.647Z,46.63
2019-02-17T04:43:46.309Z,48.20
2019-02-17T04:46:14.973Z,50.07
2019-02-17T04:48:43.647Z,51.43
2019-02-17T04:51:12.313Z,47.03
2019-02-17T04:53:40.997Z,48.80
2019-02-17T04:56:09.649Z,39.37
2019-02-17T04:58:38.330Z,43.30
2019-02-17T05:01:06.996Z,42.10
2019-02-17T05:03:35.677Z,47.60
2019-02-17T05:06:04.351Z,45.37
2019-02-17T05:08:33.046Z,49.57
2019-02-17T05:11:01.700Z,46.03
2019-02-17T05:13:30.375Z,43.90
2019-02-17T05:15:59.060Z,45.17
2019-02-17T05:18:27.748Z,42.10
2019-02-17T05:20:56.408Z,43.50
2019-02-17T05:23:25.126Z,40.87
2019-02-17T05:25:53.788Z,48.73
2019-02-17T05:28:22.451Z,44.77
2019-02-17T05:30:53.189Z,46.30
2019-02-17T05:33:21.523Z,43.23
2019-02-17T05:35:50.201Z,43.27
2019-02-17T05:38:18.885Z,44.90
2019-02-17T05:40:47.626Z,45.23
2019-02-17T05:43:16.297Z,41.37
2019-02-17T05:45:44.969Z,37.63
2019-02-17T05:48:13.644Z,45.43
2019-02-17T05:50:42.303Z,40.07
2019-02-17T05:53:10.975Z,43.20
2019-02-17T05:55:39.655Z,43.23
2019-02-17T05:58:09.938Z,37.13
2019-02-17T06:00:39.411Z,36.33
2019-02-17T06:03:08.099Z,44.53
2019-02-17T06:05:36.768Z,37.67
2019-02-17T06:08:05.436Z,42.47
2019-02-17T06:10:34.117Z,41.33
2019-02-17T06:13:02.787Z,46.17
2019-02-17T06:15:31.501Z,40.60
2019-02-17T06:18:00.169Z,49.63
2019-02-17T06:20:28.844Z,47.20
2019-02-17T06:22:57.529Z,46.17
2019-02-17T06:25:26.234Z,49.93
2019-02-17T06:27:54.911Z,47.80
2019-02-17T06:30:23.595Z,49.40
2019-02-17T06:32:52.288Z,43.97
2019-02-17T06:35:20.991Z,41.77
2019-02-17T06:37:49.686Z,46.73
2019-02-17T06:40:18.422Z,40.17
2019-02-17T06:42:47.102Z,36.00
2019-02-17T06:45:15.791Z,35.97
2019-02-17T06:47:44.453Z,35.03
2019-02-17T06:50:13.121Z,37.60
2019-02-17T06:52:41.839Z,32.53
2019-02-17T06:55:24.010Z,36.70
2019-02-17T06:57:52.692Z,40.80
2019-02-17T07:00:25.808Z,39.63
2019-02-17T07:02:54.490Z,44.20
2019-02-17T07:05:24.747Z,49.10
2019-02-17T07:07:53.440Z,49.70
2019-02-17T07:10:22.089Z,44.37
2019-02-17T07:12:50.771Z,43.00
2019-02-17T07:15:19.440Z,44.13
2019-02-17T07:17:48.114Z,40.03
2019-02-17T07:20:16.886Z,39.83
2019-02-17T07:22:45.655Z,42.10
2019-02-17T07:25:14.337Z,46.07
2019-02-17T07:27:43.032Z,39.90
2019-02-17T07:30:11.810Z,44.43
2019-02-17T07:32:40.479Z,45.57
2019-02-17T07:35:09.152Z,44.27
2019-02-17T07:37:37.825Z,43.33
2019-02-17T07:40:07.495Z,47.43
2019-02-17T07:42:36.247Z,44.20
2019-02-17T07:45:07.297Z,47.70
2019-02-17T07:47:35.991Z,48.30
2019-02-17T07:50:06.587Z,47.23
2019-02-17T07:52:35.271Z,44.10
2019-02-17T07:55:04.449Z,41.77
2019-02-17T07:57:33.116Z,45.73
2019-02-17T08:00:01.831Z,43.53
2019-02-17T08:02:30.495Z,43.70
2019-02-17T08:04:59.163Z,43.70
2019-02-17T08:07:27.837Z,44.43
2019-02-17T08:09:56.524Z,45.63
2019-02-17T08:12:25.197Z,46.93
2019-02-17T08:14:53.895Z,44.33
2019-02-17T08:17:22.559Z,46.50
2019-02-17T08:19:51.294Z,46.53
2019-02-17T08:22:19.929Z,46.37
2019-02-17T08:24:48.600Z,47.90
2019-02-17T08:27:17.268Z,42.77
2019-02-17T08:29:46.007Z,46.77
2019-02-17T08:32:14.652Z,48.87
2019-02-17T08:34:43.324Z,48.07
2019-02-17T08:37:12.009Z,49.03
2019-02-17T08:39:40.693Z,49.63
2019-02-17T08:42:09.389Z,46.90
2019-02-17T08:44:38.060Z,49.27
2019-02-17T08:47:06.733Z,45.17
2019-02-17T08:49:35.414Z,46.83
2019-02-17T08:52:04.102Z,53.00
2019-02-17T08:54:32.790Z,51.17
2019-02-17T08:57:01.467Z,44.87
2019-02-17T08:59:30.637Z,47.43
2019-02-17T09:02:05.895Z,42.93
2019-02-17T09:04:29.723Z,51.67
2019-02-17T09:06:58.405Z,42.57
2019-02-17T09:09:27.072Z,42.63
2019-02-17T09:11:55.794Z,44.87
2019-02-17T09:14:24.462Z,44.80
2019-02-17T09:16:53.162Z,40.70
2019-02-17T09:19:21.827Z,44.47
2019-02-17T09:21:50.494Z,41.03
2019-02-17T09:24:19.183Z,45.30
2019-02-17T09:26:47.846Z,39.30
2019-02-17T09:29:16.530Z,40.57
2019-02-17T09:31:45.413Z,42.23
2019-02-17T09:34:14.066Z,40.87
2019-02-17T09:36:42.755Z,37.50
2019-02-17T09:39:11.438Z,40.60
2019-02-17T09:41:40.121Z,37.87
2019-02-17T09:44:08.814Z,35.30
2019-02-17T09:46:37.512Z,38.10
2019-02-17T09:49:06.193Z,38.43
2019-02-17T09:51:34.929Z,38.77
2019-02-17T09:54:03.672Z,36.50
2019-02-17T09:56:32.357Z,37.87
2019-02-17T09:59:01.045Z,38.77
2019-02-17T10:01:29.740Z,39.10
2019-02-17T10:03:58.595Z,36.47
2019-02-17T10:06:27.253Z,37.53
2019-02-17T10:08:55.931Z,38.43
2019-02-17T10:11:24.618Z,35.33
2019-02-17T10:13:53.278Z,40.57
2019-02-17T10:16:21.963Z,37.93
2019-02-17T10:18:50.641Z,34.33
2019-02-17T10:21:19.317Z,45.10
2019-02-17T10:23:48.006Z,38.63
2019-02-17T10:26:16.669Z,35.43
2019-02-17T10:28:45.341Z,35.77
2019-02-17T10:31:14.027Z,36.90
2019-02-17T10:33:43.604Z,36.20
2019-02-17T10:36:12.318Z,36.13
2019-02-17T10:38:40.963Z,34.87
2019-02-17T10:41:09.697Z,37.73
2019-02-17T10:43:38.519Z,38.03
2019-02-17T10:46:07.201Z,35.30
2019-02-17T10:48:35.906Z,34.93
2019-02-17T10:51:04.692Z,35.67
2019-02-17T10:53:33.368Z,34.10
2019-02-17T10:56:02.069Z,36.37
2019-02-17T10:58:30.746Z,32.27
2019-02-17T11:00:59.414Z,29.17
2019-02-17T11:03:28.099Z,28.10
2019-02-17T11:05:56.779Z,30.40
2019-02-17T11:08:25.486Z,31.05
2019-02-17T11:10:54.163Z,28.30
2019-02-17T11:13:22.855Z,27.37
2019-02-17T11:15:51.520Z,26.85
2019-02-17T11:18:20.200Z,29.32
2019-02-17T11:20:48.920Z,34.58
2019-02-17T11:23:17.601Z,31.30
2019-02-17T11:25:46.376Z,29.25
2019-02-17T11:28:15.061Z,26.60
2019-02-17T11:30:43.757Z,25.45
2019-02-17T11:33:12.432Z,26.93
2019-02-17T11:35:41.118Z,32.20
2019-02-17T11:38:09.798Z,28.85
2019-02-17T11:40:38.484Z,28.77
2019-02-17T11:43:07.156Z,25.27
2019-02-17T11:45:35.829Z,24.98
2019-02-17T11:48:04.793Z,26.07
2019-02-17T11:50:33.455Z,27.27
2019-02-17T11:53:02.134Z,29.32
2019-02-17T11:55:30.817Z,26.85
2019-02-17T11:57:59.505Z,27.87
2019-02-17T12:00:28.650Z,23.18
2019-02-17T12:03:07.246Z,22.65
2019-02-17T12:05:27.779Z,26.23
2019-02-17T12:07:56.462Z,21.85
2019-02-17T12:10:25.141Z,22.80
2019-02-17T12:12:53.860Z,24.87
2019-02-17T12:15:22.772Z,25.97
2019-02-17T12:17:51.444Z,22.42
2019-02-17T12:20:23.099Z,22.98
2019-02-17T12:22:53.369Z,22.40
2019-02-17T12:25:23.614Z,28.38
2019-02-17T12:27:59.860Z,20.17
2019-02-17T12:30:28.558Z,21.02
2019-02-17T12:32:57.238Z,20.88
2019-02-17T12:35:25.934Z,17.20
2019-02-17T12:37:54.614Z,19.52
2019-02-17T12:40:23.358Z,20.23
2019-02-17T12:42:52.034Z,18.57
2019-02-17T12:45:20.704Z,20.02
2019-02-17T12:47:57.577Z,20.90
2019-02-17T12:50:20.193Z,21.45
2019-02-17T12:52:48.865Z,19.50
2019-02-17T12:55:17.542Z,15.75
2019-02-17T12:57:46.221Z,15.90
2019-02-17T13:00:17.590Z,18.75
2019-02-17T13:02:46.277Z,17.15
2019-02-17T13:05:14.955Z,16.93
2019-02-17T13:07:44.712Z,20.40
2019-02-17T13:10:13.587Z,19.48
2019-02-17T13:12:42.347Z,16.97
2019-02-17T13:15:13.221Z,21.30
2019-02-17T13:17:41.929Z,20.70
2019-02-17T13:20:15.156Z,15.13
2019-02-17T13:22:43.859Z,14.83
2019-02-17T13:25:14.425Z,17.90
2019-02-17T13:27:43.110Z,17.57
2019-02-17T13:30:23.524Z,19.95
2019-02-17T13:32:52.201Z,16.97
2019-02-17T13:35:20.972Z,17.48
2019-02-17T13:37:49.659Z,15.75
2019-02-17T13:40:18.337Z,18.95
2019-02-17T13:42:47.091Z,18.62
2019-02-17T13:45:17.228Z,11.48
2019-02-17T13:47:45.912Z,18.75
2019-02-17T13:50:16.712Z,13.08
2019-02-17T13:52:45.431Z,12.37
2019-02-17T13:55:14.111Z,15.15
2019-02-17T13:57:42.812Z,15.63
2019-02-17T14:00:16.398Z,15.88
2019-02-17T14:02:45.194Z,12.45
2019-02-17T14:05:13.861Z,12.43
2019-02-17T14:07:42.556Z,12.80
2019-02-17T14:10:13.494Z,12.73
2019-02-17T14:12:42.187Z,16.07
2019-02-17T14:15:16.407Z,13.95
2019-02-17T14:17:45.095Z,15.95
2019-02-17T14:20:13.875Z,13.03
2019-02-17T14:22:42.573Z,15.20
2019-02-17T14:25:11.831Z,12.17
2019-02-17T14:27:40.510Z,10.93
2019-02-17T14:30:14.360Z,14.20
2019-02-17T14:32:43.033Z,15.05
2019-02-17T14:35:11.801Z,11.03
2019-02-17T14:37:40.478Z,15.50
2019-02-17T14:40:14.869Z,13.90
2019-02-17T14:42:43.548Z,12.43
2019-02-17T14:45:14.449Z,13.53
2019-02-17T14:47:43.130Z,15.07
2019-02-17T14:50:12.795Z,16.10
2019-02-17T14:52:41.549Z,11.80
2019-02-17T14:55:11.764Z,12.33
2019-02-17T14:57:40.523Z,16.07
2019-02-17T15:00:14.374Z,13.67
2019-02-17T15:02:43.052Z,20.73
2019-02-17T15:05:11.926Z,26.83
2019-02-17T15:07:40.615Z,24.27
2019-02-17T15:10:10.994Z,19.90
2019-02-17T15:12:39.676Z,19.10
2019-02-17T15:15:13.515Z,15.97
2019-02-17T15:17:42.232Z,17.03
2019-02-17T15:20:13.116Z,12.53
2019-02-17T15:22:41.799Z,14.27
2019-02-17T15:25:11.978Z,13.83
2019-02-17T15:27:40.653Z,12.03
2019-02-17T15:30:12.584Z,15.93
2019-02-17T15:32:41.255Z,17.63
2019-02-17T15:35:09.959Z,20.87
2019-02-17T15:37:38.624Z,15.40
2019-02-17T15:40:12.348Z,15.70
2019-02-17T15:42:43.041Z,16.67
2019-02-17T15:45:14.821Z,13.50
2019-02-17T15:47:43.478Z,16.03
2019-02-17T15:50:13.551Z,16.37
2019-02-17T15:52:42.249Z,18.40
2019-02-17T15:55:12.703Z,10.77
2019-02-17T15:57:41.392Z,15.07
2019-02-17T16:00:15.414Z,18.97
2019-02-17T16:02:44.102Z,24.47
2019-02-17T16:05:12.787Z,23.03
2019-02-17T16:07:41.453Z,20.63
2019-02-17T16:10:11.844Z,22.33
2019-02-17T16:12:40.497Z,20.73
2019-02-17T16:15:17.723Z,22.23
2019-02-17T16:17:46.397Z,28.47
2019-02-17T16:20:15.278Z,26.80
2019-02-17T16:22:43.956Z,30.30
2019-02-17T16:25:13.026Z,25.40
2019-02-17T16:27:41.694Z,24.90
2019-02-17T16:30:18.801Z,24.53
2019-02-17T16:32:47.459Z,22.80
2019-02-17T16:35:16.141Z,19.37
2019-02-17T16:37:44.798Z,20.90
2019-02-17T16:40:17.439Z,25.43
2019-02-17T16:42:46.117Z,26.57
2019-02-17T16:45:15.391Z,23.73
2019-02-17T16:47:44.763Z,22.37
2019-02-17T16:50:19.239Z,25.50
2019-02-17T16:52:48.043Z,21.63
2019-02-17T16:55:16.661Z,22.37
2019-02-17T16:57:45.342Z,23.17
2019-02-17T17:00:18.424Z,22.67
2019-02-17T17:02:47.093Z,26.27
2019-02-17T17:05:15.769Z,35.50
2019-02-17T17:07:44.532Z,28.83
2019-02-17T17:10:14.015Z,29.90
2019-02-17T17:12:42.693Z,29.87
2019-02-17T17:15:11.548Z,32.80
2019-02-17T17:17:40.230Z,30.67
2019-02-17T17:20:10.963Z,28.33
2019-02-17T17:22:39.648Z,29.17
2019-02-17T17:25:10.312Z,30.57
2019-02-17T17:27:41.235Z,31.57
2019-02-17T17:30:12.246Z,30.77
2019-02-17T17:32:41.021Z,32.93
2019-02-17T17:35:10.785Z,33.50
2019-02-17T17:37:39.977Z,34.83
2019-02-17T17:40:11.011Z,33.80
2019-02-17T17:42:39.852Z,34.57
2019-02-17T17:45:16.621Z,36.63
2019-02-17T17:47:45.324Z,32.07
2019-02-17T17:50:17.311Z,38.07
2019-02-17T17:52:46.093Z,32.73
2019-02-17T17:55:14.995Z,36.33
2019-02-17T17:57:43.671Z,33.87
2019-02-17T18:00:20.242Z,35.70
2019-02-17T18:02:48.935Z,36.03
2019-02-17T18:05:17.596Z,28.93
2019-02-17T18:07:46.269Z,32.50
2019-02-17T18:10:16.047Z,34.00
2019-02-17T18:12:44.708Z,35.13
2019-02-17T18:15:18.661Z,34.77
2019-02-17T18:17:53.803Z,33.47
2019-02-17T18:20:17.710Z,32.40
2019-02-17T18:22:46.387Z,42.03
2019-02-17T18:25:15.267Z,48.07
2019-02-17T18:27:43.922Z,53.97
2019-02-17T18:30:16.531Z,56.60
2019-02-17T18:32:45.562Z,59.30
2019-02-17T18:35:19.727Z,75.23
2019-02-17T18:37:44.627Z,71.43
2019-02-17T18:40:20.667Z,71.00
2019-02-17T18:42:49.374Z,55.47
2019-02-17T18:45:18.035Z,55.57
2019-02-17T18:47:46.724Z,52.67
2019-02-17T18:50:17.467Z,45.20
2019-02-17T18:52:46.221Z,38.87
2019-02-17T18:55:15.192Z,46.03
2019-02-17T18:57:50.035Z,43.07
2019-02-17T19:00:24.654Z,38.93
2019-02-17T19:02:53.431Z,45.57
2019-02-17T19:05:31.711Z,64.13
2019-02-17T19:07:52.490Z,46.27
2019-02-17T19:10:21.165Z,52.73
2019-02-17T19:12:49.884Z,52.60
2019-02-17T19:15:22.876Z,51.23
2019-02-17T19:17:51.573Z,76.13
2019-02-17T19:20:31.719Z,57.73
2019-02-17T19:23:00.382Z,58.00
2019-02-17T19:25:29.058Z,63.63
2019-02-17T19:27:57.721Z,75.00
2019-02-17T19:30:26.398Z,63.40
2019-02-17T19:32:55.764Z,65.53
2019-02-17T19:35:24.442Z,54.73
2019-02-17T19:37:53.204Z,62.43
2019-02-17T19:40:22.033Z,76.40
2019-02-17T19:42:50.708Z,72.93
2019-02-17T19:45:19.985Z,71.23
2019-02-17T19:47:48.661Z,81.27
2019-02-17T19:50:17.669Z,83.33
2019-02-17T19:52:46.456Z,82.50
2019-02-17T19:55:15.343Z,72.50
2019-02-17T19:57:44.020Z,76.60
2019-02-17T20:00:22.657Z,70.97
2019-02-17T20:02:55.998Z,63.57
2019-02-17T20:05:26.237Z,57.37
2019-02-17T20:07:54.935Z,45.53
2019-02-17T20:10:23.732Z,44.13
2019-02-17T20:12:52.402Z,47.20
2019-02-17T20:15:22.475Z,44.43
2019-02-17T20:17:51.181Z,42.07
2019-02-17T20:20:19.848Z,46.27
2019-02-17T20:22:48.525Z,39.93
2019-02-17T20:25:17.200Z,47.20
2019-02-17T20:27:45.875Z,45.63
2019-02-17T20:30:15.045Z,52.77
2019-02-17T20:32:45.272Z,46.37
2019-02-17T20:35:14.039Z,49.83
2019-02-17T20:37:42.858Z,54.70
2019-02-17T20:40:16.425Z,49.60
2019-02-17T20:42:45.085Z,51.80
2019-02-17T20:45:13.859Z,47.93
2019-02-17T20:47:42.516Z,46.47
2019-02-17T20:50:13.199Z,50.50
2019-02-17T20:52:41.899Z,49.87
2019-02-17T20:55:11.785Z,53.37
2019-02-17T20:57:40.454Z,48.63
2019-02-17T21:00:13.678Z,47.27
2019-02-17T21:02:42.426Z,47.73
2019-02-17T21:05:11.978Z,39.67
2019-02-17T21:07:40.689Z,39.57
2019-02-17T21:10:11.239Z,39.27
2019-02-17T21:12:39.902Z,43.33
2019-02-17T21:15:13.763Z,39.63
2019-02-17T21:17:42.429Z,38.40
2019-02-17T21:20:11.795Z,32.37
2019-02-17T21:22:40.476Z,30.93
2019-02-17T21:25:10.568Z,28.67
2019-02-17T21:27:39.239Z,28.77
2019-02-17T21:30:11.064Z,28.77
2019-02-17T21:32:39.793Z,30.77
2019-02-17T21:35:11.365Z,30.33
2019-02-17T21:37:40.042Z,23.67
2019-02-17T21:40:10.913Z,26.27
2019-02-17T21:42:39.584Z,28.07
2019-02-17T21:45:10.623Z,28.97
2019-02-17T21:47:39.395Z,30.77
2019-02-17T21:50:14.961Z,27.97
2019-02-17T21:52:43.667Z,28.33
2019-02-17T21:55:13.638Z,30.53
2019-02-17T21:57:42.513Z,33.97
2019-02-17T22:00:18.445Z,30.47
2019-02-17T22:02:47.200Z,28.17
2019-02-17T22:05:15.884Z,31.37
2019-02-17T22:07:45.161Z,25.07
2019-02-17T22:10:16.476Z,27.17
2019-02-17T22:12:45.145Z,35.53
2019-02-17T22:15:15.815Z,28.63
2019-02-17T22:17:44.764Z,22.97
2019-02-17T22:20:13.611Z,26.57
2019-02-17T22:22:42.284Z,24.90
2019-02-17T22:25:11.271Z,23.03
2019-02-17T22:27:39.945Z,22.50
2019-02-17T22:30:13.460Z,28.83
2019-02-17T22:32:42.145Z,25.57
2019-02-17T22:35:10.905Z,23.70
2019-02-17T22:37:39.626Z,25.93
2019-02-17T22:40:12.530Z,24.80
2019-02-17T22:42:41.227Z,26.80
2019-02-17T22:45:11.295Z,24.80
2019-02-17T22:47:39.970Z,28.00
2019-02-17T22:50:16.112Z,22.00
2019-02-17T22:52:46.183Z,26.07
2019-02-17T22:55:15.054Z,24.20
2019-02-17T22:57:43.731Z,22.77
2019-02-17T23:00:53.495Z,22.97
2019-02-17T23:03:22.153Z,19.27
2019-02-17T23:05:50.827Z,19.67
2019-02-17T23:08:19.527Z,18.23
2019-02-17T23:10:48.191Z,22.27
2019-02-17T23:13:16.864Z,18.33
2019-02-17T23:15:45.522Z,18.83
2019-02-17T23:18:14.221Z,15.27
2019-02-17T23:20:42.929Z,20.90
2019-02-17T23:23:11.559Z,18.50
2019-02-17T23:25:40.229Z,19.33
2019-02-17T23:28:08.962Z,19.53
2019-02-17T23:30:37.603Z,21.03
2019-02-17T23:33:06.281Z,21.93
2019-02-17T23:35:34.969Z,20.13
2019-02-17T23:38:03.635Z,21.53
2019-02-17T23:40:32.306Z,20.87
2019-02-17T23:43:00.968Z,24.23
2019-02-17T23:45:29.661Z,21.70
2019-02-17T23:47:58.323Z,21.40
2019-02-17T23:50:27.054Z,22.17
2019-02-17T23:52:55.726Z,22.77
2019-02-17T23:55:24.391Z,19.33
2019-02-17T23:57:53.112Z,20.97
